Scotts, North Carolina
Current Conditions -  °F | °C
As of 6:15 PM on Wednesday 22 Oct 2014 (Local Time) from KSVH Reporting Station
Clear Clear  
Wind Chill: 56°   Ceiling: Unl
Heat Index: 56°   Visibility: 10mi
Dew Point: 38°   Wind: 10mph
Humidity: 52%   Direction: 330°NNW
Pressure: 30.07"   Gusts: 18mph
Location:  35.84°N, 81.01°W
Report Text: KSVH 222215Z AUTO 33009G16KT 10SM CLR 13/04 A3007 RMK AO2 T01320035
Loading
Personal Weather Stations






























Interactive Weather Map
Tropical Storm Tracking
New forecast layout! Learn more

10-Day Weather Forecast

Advertisements
Track Severe Weather on mobile